Time;durP1;ratioP1;P1;durP2;ratioP2;P2;SDS_P1;SDS_P2;PMS_P1;PMS_P2;Temp;Humidity;BMP_temperature;BMP_pressure;BME280_temperature;BME280_humidity;BME280_pressure;Samples;Min_cycle;Max_cycle;Signal;HPM_P1;HPM_P2
2023/02/14 00:01:45;;;;;;;73.95;43.40;;;;;;;0.23;100.00;101208.72;5073004;28;20032;-73
2023/02/14 00:04:11;;;;;;;73.47;43.17;;;;;;;-0.56;100.00;101166.78;5073070;28;20032;-73
2023/02/14 00:06:38;;;;;;;70.15;41.17;;;;;;;-0.14;100.00;101216.59;5073118;28;20032;-73
2023/02/14 00:09:04;;;;;;;66.47;40.80;;;;;;;-0.29;100.00;101203.59;5073279;28;20029;-73
2023/02/14 00:11:30;;;;;;;65.30;40.83;;;;;;;-0.07;100.00;101221.03;5071408;28;20025;-74
2023/02/14 00:16:40;;;;;;;75.18;47.15;;;;;;;-0.32;100.00;101200.97;5072609;28;20050;-74
2023/02/14 00:19:05;;;;;;;63.42;42.22;;;;;;;-0.36;100.00;101174.22;5072398;28;20036;-74
2023/02/14 00:21:36;;;;;;;53.10;34.47;;;;;;;-0.82;100.00;101174.97;5073008;28;20070;-74
2023/02/14 00:24:04;;;;;;;54.50;34.05;;;;;;;-0.77;100.00;101156.06;5072890;28;20034;-74
2023/02/14 00:26:30;;;;;;;54.45;33.08;;;;;;;-0.59;100.00;101197.50;5072512;28;20107;-73
2023/02/14 00:28:55;;;;;;;50.67;32.60;;;;;;;-0.46;100.00;101144.72;5054831;28;20116;-74
2023/02/14 00:31:20;;;;;;;54.22;34.28;;;;;;;-0.79;100.00;101112.72;5072134;28;20479;-73
2023/02/14 00:33:46;;;;;;;53.95;34.10;;;;;;;-0.97;100.00;101200.25;5072078;28;20091;-73
2023/02/14 00:36:11;;;;;;;52.38;32.40;;;;;;;-0.76;100.00;101161.09;5054043;28;20043;-73
2023/02/14 00:38:37;;;;;;;52.97;31.05;;;;;;;-0.81;100.00;101160.06;5054318;28;20549;-74
2023/02/14 00:41:03;;;;;;;50.80;30.20;;;;;;;-0.78;100.00;101212.59;5072350;28;20447;-74
2023/02/14 00:43:29;;;;;;;47.63;29.48;;;;;;;-0.74;100.00;101184.47;5072086;28;20081;-74
2023/02/14 00:45:54;;;;;;;49.90;30.52;;;;;;;-0.62;100.00;101179.06;5054582;28;20028;-73
2023/02/14 00:48:20;;;;;;;47.25;29.20;;;;;;;-0.82;100.00;101130.94;5071837;28;20056;-73
2023/02/14 00:50:46;;;;;;;46.60;28.60;;;;;;;-1.03;100.00;101130.16;5072162;28;20059;-73
2023/02/14 00:53:11;;;;;;;48.88;29.63;;;;;;;-0.63;100.00;101168.22;5072051;28;20090;-73
2023/02/14 00:55:37;;;;;;;48.25;29.77;;;;;;;-0.68;100.00;101176.34;5072138;28;20035;-74
2023/02/14 00:58:03;;;;;;;48.60;30.90;;;;;;;-0.66;100.00;101100.72;5054140;28;20060;-73
2023/02/14 01:00:28;;;;;;;46.05;29.13;;;;;;;-0.32;100.00;101163.50;5071364;28;20087;-73
2023/02/14 01:02:54;;;;;;;47.05;28.52;;;;;;;-0.63;100.00;101113.28;5071589;28;20395;-72
2023/02/14 01:05:24;;;;;;;47.00;28.27;;;;;;;-0.43;100.00;101149.81;5072342;28;20028;-73
2023/02/14 01:07:50;;;;;;;46.47;28.65;;;;;;;-0.73;100.00;101168.69;5071297;28;20056;-73
2023/02/14 01:10:15;;;;;;;52.45;28.92;;;;;;;-0.76;100.00;101166.09;5071567;28;20079;-73
2023/02/14 01:12:40;;;;;;;49.47;30.20;;;;;;;-1.18;100.00;101182.81;5071508;28;20040;-75
2023/02/14 01:15:06;;;;;;;48.97;28.58;;;;;;;-0.98;100.00;101169.44;5054150;28;20028;-73
2023/02/14 01:17:40;;;;;;;48.10;28.00;;;;;;;-1.52;100.00;101061.78;5071824;28;20029;-73
2023/02/14 01:20:06;;;;;;;51.08;29.23;;;;;;;-0.99;100.00;101144.44;5071126;28;20119;-73
2023/02/14 01:22:37;;;;;;;45.05;29.08;;;;;;;-0.81;100.00;101144.25;5071625;28;20040;-73
2023/02/14 01:25:03;;;;;;;34.63;22.45;;;;;;;-1.02;100.00;101082.81;5071713;28;20086;-73
2023/02/14 01:27:41;;;;;;;49.53;29.58;;;;;;;-0.58;100.00;101138.44;5071505;28;20406;-73
2023/02/14 01:30:07;;;;;;;50.72;29.33;;;;;;;-0.54;100.00;101125.25;5054025;28;20123;-73
2023/02/14 01:32:33;;;;;;;50.42;30.60;;;;;;;-1.03;100.00;101158.41;5053534;28;20495;-73
2023/02/14 01:34:59;;;;;;;46.90;28.88;;;;;;;-0.82;100.00;101147.53;5071697;28;20165;-73
2023/02/14 01:37:25;;;;;;;52.65;30.60;;;;;;;-1.20;100.00;101101.22;5053368;28;20064;-73
2023/02/14 01:39:50;;;;;;;58.72;35.20;;;;;;;-1.18;100.00;101132.91;5072011;28;20040;-73
2023/02/14 01:42:16;;;;;;;55.10;33.80;;;;;;;-0.46;100.00;101117.25;5071159;28;20021;-73
2023/02/14 01:45:02;;;;;;;52.95;32.72;;;;;;;-0.67;100.00;101118.16;5071906;28;20024;-73
2023/02/14 01:47:32;;;;;;;51.13;31.73;;;;;;;-1.05;100.00;101120.09;5070524;28;20121;-74
2023/02/14 01:50:13;;;;;;;50.70;31.30;;;;;;;-1.20;100.00;101073.78;5052689;28;20049;-74
2023/02/14 01:52:48;;;;;;;49.33;30.70;;;;;;;-0.66;100.00;101100.72;5053810;28;20043;-74
2023/02/14 01:55:18;;;;;;;53.70;30.83;;;;;;;-1.24;100.00;101086.94;5071580;28;20036;-76
2023/02/14 01:57:50;;;;;;;57.92;32.97;;;;;;;-1.21;100.00;101087.06;5071561;28;20028;-78
2023/02/14 02:03:02;;;;;;;50.72;30.13;;;;;;;-1.50;100.00;101050.22;5071472;28;19985;-74
2023/02/14 02:05:27;;;;;;;48.65;31.02;;;;;;;-1.25;100.00;101037.88;5053450;28;20036;-74
2023/02/14 02:07:56;;;;;;;53.03;32.85;;;;;;;-1.29;100.00;101038.56;5070847;28;20032;-74
2023/02/14 02:10:22;;;;;;;55.53;34.13;;;;;;;-0.82;100.00;101105.13;5052650;28;20430;-73
2023/02/14 02:12:50;;;;;;;59.30;33.90;;;;;;;-1.10;100.00;100998.50;5070833;28;20029;-74
2023/02/14 02:15:15;;;;;;;61.03;35.83;;;;;;;-1.36;100.00;100991.75;5071555;28;20028;-74
2023/02/14 02:18:02;;;;;;;52.70;32.70;;;;;;;-0.83;100.00;101088.47;5071430;28;20649;-75
2023/02/14 02:20:27;;;;;;;65.57;34.30;;;;;;;-0.80;100.00;101081.91;5071150;28;20083;-74
2023/02/14 02:23:11;;;;;;;63.65;34.38;;;;;;;-1.02;100.00;101081.94;5053314;28;20479;-74
2023/02/14 02:25:36;;;;;;;67.32;35.70;;;;;;;-0.68;100.00;101071.50;5071145;28;20063;-74
2023/02/14 02:28:02;;;;;;;57.25;34.10;;;;;;;-0.73;100.00;101073.00;5071350;28;20021;-74
2023/02/14 02:31:04;;;;;;;59.55;34.47;;;;;;;-0.80;100.00;101066.09;5071297;28;20028;-73
2023/02/14 02:34:11;;;;;;;66.50;35.85;;;;;;;-0.99;100.00;101062.13;5071011;28;20486;-74
2023/02/14 02:36:50;;;;;;;61.72;33.65;;;;;;;-0.93;100.00;101067.28;5070988;28;20050;-74
2023/02/14 02:39:53;;;;;;;62.38;34.78;;;;;;;-1.22;100.00;101070.38;5053202;28;20406;-75
2023/02/14 02:42:27;;;;;;;;;;;;;;;-1.01;100.00;101056.22;5071256;28;20101;-74
2023/02/14 02:45:16;;;;;;;69.55;35.40;;;;;;;-1.02;100.00;101059.50;5071441;28;19920;-74
2023/02/14 02:48:19;;;;;;;61.95;34.08;;;;;;;-0.94;100.00;101055.63;5070530;28;20033;-73
2023/02/14 02:53:52;;;;;;;58.47;32.90;;;;;;;-1.30;100.00;101055.16;5072351;28;19919;-74
2023/02/14 02:56:45;;;;;;;56.53;34.03;;;;;;;-1.08;100.00;101030.19;5074216;28;20066;-75
2023/02/14 02:59:17;;;;;;;63.90;36.42;;;;;;;-1.38;100.00;101075.59;5074268;28;20029;-74
2023/02/14 03:01:47;;;;;;;46.47;27.67;;;;;;;-1.14;100.00;101025.00;5089553;28;20035;-73
2023/02/14 03:06:59;;;;;;;65.57;38.17;;;;;;;-1.23;100.00;100966.47;5094581;28;20042;-75
2023/02/14 03:09:25;;;;;;;71.80;38.75;;;;;;;-1.17;100.00;101024.88;5080527;28;20037;-74
2023/02/14 03:12:22;;;;;;;69.38;39.65;;;;;;;-0.90;100.00;101005.91;5056597;28;20483;-75
2023/02/14 03:15:15;;;;;;;70.47;38.35;;;;;;;-1.29;100.00;101001.16;5043503;28;20052;-74
2023/02/14 03:17:56;;;;;;;66.55;38.13;;;;;;;-1.17;100.00;101014.06;5056252;28;20024;-74
2023/02/14 03:20:40;;;;;;;72.50;39.83;;;;;;;-1.01;100.00;101006.31;5073947;28;20063;-73
2023/02/14 03:23:28;;;;;;;62.97;37.72;;;;;;;-1.58;100.00;100975.16;5055664;28;20037;-75
2023/02/14 03:26:05;;;;;;;68.15;38.20;;;;;;;-1.16;100.00;100973.34;5073639;28;20028;-75
2023/02/14 03:29:07;;;;;;;60.35;36.88;;;;;;;-1.31;100.00;100985.28;5073915;28;20486;-74
2023/02/14 03:31:43;;;;;;;63.65;36.85;;;;;;;-1.52;100.00;100920.56;5073979;28;20036;-73
2023/02/14 03:34:19;;;;;;;65.80;38.40;;;;;;;-1.45;100.00;100964.00;5055358;28;20029;-74
2023/02/14 03:36:57;;;;;;;63.92;37.60;;;;;;;-1.57;100.00;100979.38;5072601;28;20584;-75
2023/02/14 03:39:53;;;;;;;67.15;36.53;;;;;;;-2.19;100.00;100884.88;5055217;28;20035;-74
2023/02/14 03:42:25;;;;;;;73.00;44.47;;;;;;;-1.41;100.00;100953.34;5048057;28;20453;-76
2023/02/14 03:44:53;;;;;;;61.00;37.15;;;;;;;-1.87;100.00;100849.56;5055425;28;20059;-75
2023/02/14 03:47:23;;;;;;;61.58;37.40;;;;;;;-1.85;100.00;100869.53;5073831;28;20040;-75
2023/02/14 03:50:12;;;;;;;63.00;36.17;;;;;;;-1.23;100.00;100959.00;5072289;28;20040;-74
2023/02/14 03:52:39;;;;;;;67.57;36.80;;;;;;;-1.53;100.00;100957.91;5078639;28;20043;-74
2023/02/14 03:55:06;;;;;;;62.38;36.15;;;;;;;-1.85;100.00;100895.31;5085120;28;20028;-75
2023/02/14 03:57:59;;;;;;;67.57;37.25;;;;;;;-1.68;100.00;100958.19;5072830;28;20044;-75
2023/02/14 04:00:27;;;;;;;62.05;36.40;;;;;;;-2.05;100.00;100900.34;5036902;28;20105;-74
2023/02/14 04:03:00;;;;;;;67.55;40.00;;;;;;;-1.83;100.00;100876.28;5072903;28;20030;-75
2023/02/14 04:05:27;;;;;;;74.00;41.65;;;;;;;-1.89;100.00;100882.66;5054402;28;20486;-73
2023/02/14 04:07:55;;;;;;;67.68;37.63;;;;;;;-1.87;100.00;100915.97;5055639;28;20032;-74
2023/02/14 04:10:22;;;;;;;61.08;38.08;;;;;;;-2.04;100.00;100853.06;5073405;28;20468;-74
2023/02/14 04:12:49;;;;;;;69.35;37.15;;;;;;;-1.89;100.00;100862.75;5072264;28;20039;-74
2023/02/14 04:15:15;;;;;;;64.22;37.45;;;;;;;-2.02;100.00;100838.19;5073158;28;20029;-75
2023/02/14 04:20:26;;;;;;;70.43;39.45;;;;;;;-2.24;100.00;100829.06;5073077;28;20106;-75
2023/02/14 04:22:51;;;;;;;68.78;38.45;;;;;;;-1.51;100.00;100876.53;5054812;28;20039;-75
2023/02/14 04:25:18;;;;;;;66.22;38.75;;;;;;;-1.70;100.00;100899.13;5072328;28;20024;-75
2023/02/14 04:27:43;;;;;;;73.68;40.45;;;;;;;-1.44;100.00;100888.41;5054702;28;20028;-74
2023/02/14 04:30:11;;;;;;;68.95;39.67;;;;;;;-1.49;100.00;100873.31;5073097;28;20123;-75
2023/02/14 04:32:38;;;;;;;69.38;39.70;;;;;;;-0.82;100.00;100850.59;5072406;28;20024;-68
2023/02/14 04:35:04;;;;;;;75.05;42.22;;;;;;;-1.06;100.00;100858.13;5053941;28;20089;-69
2023/02/14 04:37:29;;;;;;;71.40;41.75;;;;;;;-1.16;100.00;100847.03;5072254;28;20029;-72
2023/02/14 04:39:54;;;;;;;76.63;40.40;;;;;;;-1.56;100.00;100858.06;5071922;28;20498;-72
2023/02/14 04:42:20;;;;;;;69.53;40.03;;;;;;;-1.59;100.00;100821.47;5054119;28;20031;-73
2023/02/14 04:44:45;;;;;;;65.90;39.65;;;;;;;-1.36;100.00;100879.56;5053918;28;20052;-71
2023/02/14 04:47:11;;;;;;;68.00;39.20;;;;;;;-1.62;100.00;100873.66;5071472;28;20135;-72
2023/02/14 04:49:36;;;;;;;75.80;42.55;;;;;;;-2.14;100.00;100821.16;5071408;28;20052;-71
2023/02/14 04:52:02;;;;;;;68.78;39.83;;;;;;;-1.68;100.00;100870.13;5071993;28;20178;-72
2023/02/14 04:54:28;;;;;;;70.05;40.53;;;;;;;-2.28;100.00;100807.38;5071572;28;20142;-73
2023/02/14 04:56:53;;;;;;;72.38;39.65;;;;;;;-2.17;100.00;100875.84;5053736;28;20127;-70
2023/02/14 04:59:19;;;;;;;74.40;41.40;;;;;;;-2.04;100.00;100865.50;5071285;28;20118;-68
2023/02/14 05:01:53;;;;;;;78.60;41.60;;;;;;;-2.08;100.00;100871.19;5071352;28;20437;-74
2023/02/14 05:04:18;;;;;;;75.90;41.35;;;;;;;-2.32;100.00;100782.31;5070993;28;20028;-71
2023/02/14 05:06:43;;;;;;;82.88;42.80;;;;;;;-1.99;100.00;100810.91;5071674;28;20035;-72
2023/02/14 05:09:09;;;;;;;82.63;45.75;;;;;;;-1.83;100.00;100866.31;5071317;28;20028;-73
2023/02/14 05:11:35;;;;;;;83.18;49.53;;;;;;;-2.04;100.00;100807.41;5071229;28;20033;-73
2023/02/14 05:14:00;;;;;;;100.55;52.88;;;;;;;-1.83;100.00;100873.78;5072047;28;20211;-72
2023/02/14 05:16:26;;;;;;;96.18;50.58;;;;;;;-2.12;100.00;100818.75;5053039;28;20036;-74
2023/02/14 05:18:51;;;;;;;94.43;54.63;;;;;;;-1.90;100.00;100880.94;5070399;28;20032;-75
2023/02/14 05:21:16;;;;;;;97.75;50.72;;;;;;;-1.81;100.00;100876.31;5071191;28;20219;-74
2023/02/14 05:23:42;;;;;;;85.80;48.42;;;;;;;-1.80;100.00;100878.84;5070399;28;20032;-73
2023/02/14 05:26:07;;;;;;;84.88;46.05;;;;;;;-2.15;100.00;100821.09;5052824;28;20435;-72
2023/02/14 05:28:33;;;;;;;89.18;50.55;;;;;;;-2.07;100.00;100830.56;5070530;28;20414;-73
2023/02/14 05:31:07;;;;;;;89.53;48.38;;;;;;;-1.89;100.00;100857.75;5071665;28;20115;-73
2023/02/14 05:33:32;;;;;;;85.13;48.53;;;;;;;-2.21;100.00;100898.91;5071285;28;20032;-75
2023/02/14 05:35:59;;;;;;;84.93;47.00;;;;;;;-2.09;100.00;100842.09;5071610;28;20036;-75
2023/02/14 05:38:25;;;;;;;126.35;67.07;;;;;;;-2.20;100.00;100830.88;5053682;28;20032;-75
2023/02/14 05:40:51;;;;;;;125.47;68.22;;;;;;;-1.75;100.00;100861.59;5053378;28;20515;-76
2023/02/14 05:43:16;;;;;;;103.20;58.70;;;;;;;-1.82;100.00;100872.97;5070777;28;20052;-75
2023/02/14 05:45:41;;;;;;;125.53;68.53;;;;;;;-2.01;100.00;100807.50;5071401;28;20511;-74
2023/02/14 05:48:07;;;;;;;94.25;56.13;;;;;;;-1.87;100.00;100808.84;5070317;28;20041;-73
2023/02/14 05:50:32;;;;;;;91.28;55.60;;;;;;;-1.92;100.00;100787.88;5070869;28;20072;-74
2023/02/14 05:52:59;;;;;;;87.25;50.67;;;;;;;0.11;100.00;100850.91;5071236;28;20033;-74
2023/02/14 05:55:25;;;;;;;93.85;52.17;;;;;;;0.87;100.00;100812.06;5071172;28;20101;-73
2023/02/14 05:57:50;;;;;;;85.95;50.42;;;;;;;2.06;100.00;100903.31;5069869;28;20040;-75
2023/02/14 06:00:16;;;;;;;85.40;49.90;;;;;;;2.39;100.00;100893.94;5053375;28;20036;-75
2023/02/14 06:02:42;;;;;;;94.97;56.25;;;;;;;2.94;100.00;100984.53;5071030;28;20106;-78
2023/02/14 06:05:07;;;;;;;94.88;53.40;;;;;;;2.51;100.00;101017.13;5071338;28;20518;-78
2023/02/14 06:07:33;;;;;;;84.00;51.65;;;;;;;3.66;100.00;101041.94;5053501;28;20098;-78
2023/02/14 06:09:58;;;;;;;101.97;59.88;;;;;;;3.98;100.00;101073.50;5053346;28;20050;-78
2023/02/14 06:12:24;;;;;;;98.43;61.65;;;;;;;4.27;100.00;101054.66;5053442;28;20040;-78
2023/02/14 06:14:50;;;;;;;102.97;64.68;;;;;;;4.25;100.00;101146.91;5053787;28;20028;-78
2023/02/14 06:17:19;;;;;;;113.13;73.13;;;;;;;4.96;100.00;101145.44;5071537;28;20511;-78
2023/02/14 06:19:44;;;;;;;131.52;79.90;;;;;;;3.89;100.00;101126.16;5071407;28;20577;-78
2023/02/14 06:22:10;;;;;;;127.78;78.05;;;;;;;5.03;100.00;101175.78;5071750;28;20108;-79
2023/02/14 06:24:35;;;;;;;124.05;74.40;;;;;;;4.26;100.00;101100.78;5071614;28;20035;-78
2023/02/14 06:27:01;;;;;;;120.10;74.32;;;;;;;5.29;100.00;101184.53;5053452;28;20105;-79
2023/02/14 06:29:26;;;;;;;99.15;60.47;;;;;;;3.21;100.00;101248.81;5073801;28;20108;-78
2023/02/14 06:31:52;;;;;;;116.43;68.60;;;;;;;3.54;100.00;101238.63;5075028;28;20480;-78
2023/02/14 06:34:17;;;;;;;105.82;63.67;;;;;;;5.21;100.00;101211.31;5075572;28;20028;-78
2023/02/14 06:36:43;;;;;;;107.70;66.45;;;;;;;4.92;100.00;101157.16;5056880;28;20039;-78
2023/02/14 06:39:08;;;;;;;104.75;68.70;;;;;;;4.93;100.00;101201.66;5074995;28;20494;-76
2023/02/14 06:41:34;;;;;;;126.43;78.20;;;;;;;5.06;100.00;101164.91;5075275;28;20037;-77
2023/02/14 06:43:59;;;;;;;125.95;72.22;;;;;;;4.94;100.00;101221.00;5056973;28;20036;-76
2023/02/14 06:46:24;;;;;;;104.75;61.58;;;;;;;3.90;100.00;101168.91;5075563;28;20028;-76
2023/02/14 06:48:50;;;;;;;88.75;57.20;;;;;;;2.60;100.00;101192.97;5075187;28;20044;-77
2023/02/14 06:51:15;;;;;;;84.88;54.58;;;;;;;2.67;100.00;101153.00;5057240;28;20044;-77
2023/02/14 06:53:41;;;;;;;83.00;52.47;;;;;;;2.70;100.00;101168.94;5057079;28;20102;-77
2023/02/14 06:56:07;;;;;;;82.22;49.65;;;;;;;2.67;100.00;101158.84;5075141;28;20029;-80
2023/02/14 06:58:32;;;;;;;83.32;50.90;;;;;;;2.56;100.00;101083.31;5075107;28;20544;-76
2023/02/14 07:00:58;;;;;;;82.32;50.25;;;;;;;2.79;100.00;101066.25;5074807;28;20028;-77
2023/02/14 07:03:25;;;;;;;83.13;49.88;;;;;;;3.06;100.00;101052.56;5074232;28;20028;-78
2023/02/14 07:05:51;;;;;;;76.38;48.42;;;;;;;3.31;100.00;101114.16;5073432;28;20029;-77
2023/02/14 07:08:17;;;;;;;81.00;47.10;;;;;;;3.92;100.00;101099.38;5056847;28;20035;-76
2023/02/14 07:10:42;;;;;;;85.13;46.50;;;;;;;4.22;100.00;101076.38;5073620;28;20107;-77
2023/02/14 07:13:07;;;;;;;77.60;46.20;;;;;;;4.39;100.00;101077.50;5074098;28;20032;-76
2023/02/14 07:15:33;;;;;;;69.40;38.80;;;;;;;3.94;100.00;101094.41;5074482;28;20078;-74
2023/02/14 07:17:58;;;;;;;71.47;41.10;;;;;;;4.58;100.00;101081.09;5073661;28;20140;-75
2023/02/14 07:20:24;;;;;;;68.15;41.72;;;;;;;4.35;100.00;101085.81;5073291;28;20028;-75
2023/02/14 07:22:50;;;;;;;71.25;41.35;;;;;;;3.93;100.00;101049.94;5073258;28;20089;-74
2023/02/14 07:25:16;;;;;;;65.25;39.72;;;;;;;5.21;100.00;101067.66;5073963;28;20150;-75
2023/02/14 07:27:42;;;;;;;60.67;37.85;;;;;;;4.82;100.00;101066.31;5072964;28;20048;-75
2023/02/14 07:30:10;;;;;;;50.17;33.53;;;;;;;5.04;100.00;101020.41;5073757;28;20048;-75
2023/02/14 07:32:36;;;;;;;45.88;29.60;;;;;;;5.07;100.00;101074.19;5073483;28;20448;-74
2023/02/14 07:35:02;;;;;;;46.85;30.33;;;;;;;5.48;100.00;101069.63;5074030;28;20043;-75
2023/02/14 07:37:28;;;;;;;47.08;28.92;;;;;;;5.16;100.00;101034.00;5073772;28;20028;-75
2023/02/14 07:39:53;;;;;;;42.50;28.35;;;;;;;5.89;100.00;101067.50;5072882;28;20426;-75
2023/02/14 07:42:19;;;;;;;45.00;28.75;;;;;;;6.51;100.00;101068.81;5073321;28;20036;-74
2023/02/14 07:44:45;;;;;;;48.88;33.60;;;;;;;6.90;100.00;101081.66;5072541;28;20119;-74
2023/02/14 07:47:10;;;;;;;40.78;26.40;;;;;;;5.81;100.00;101059.00;5073547;28;20051;-75
2023/02/14 07:49:36;;;;;;;42.85;27.92;;;;;;;6.14;100.00;101056.75;5077227;28;20048;-74
2023/02/14 07:52:03;;;;;;;39.25;28.15;;;;;;;6.75;100.00;101108.53;5093465;28;20032;-75
2023/02/14 07:54:28;;;;;;;36.70;22.85;;;;;;;6.60;100.00;101052.84;5075692;28;20498;-75
2023/02/14 07:56:54;;;;;;;29.92;19.10;;;;;;;6.98;100.00;101105.28;5092711;28;20082;-75
2023/02/14 07:59:19;;;;;;;34.70;20.73;;;;;;;7.03;100.00;101056.44;5093457;28;20024;-76
2023/02/14 08:01:44;;;;;;;48.03;20.08;;;;;;;6.83;100.00;101048.78;5075319;28;20492;-77
2023/02/14 08:04:12;;;;;;;33.88;17.88;;;;;;;7.00;100.00;101110.34;5092447;28;20475;-76
2023/02/14 08:06:39;;;;;;;29.67;18.02;;;;;;;7.35;100.00;101113.03;5092914;28;20024;-76
2023/02/14 08:09:04;;;;;;;28.33;17.67;;;;;;;6.91;100.00;101058.06;5093459;28;20305;-76
2023/02/14 08:14:13;;;;;;;27.85;17.40;;;;;;;7.26;100.00;101123.97;5093984;28;20032;-77
2023/02/14 08:16:38;;;;;;;31.33;17.35;;;;;;;7.45;100.00;101129.91;5092728;28;20024;-76
2023/02/14 08:19:04;;;;;;;26.33;17.25;;;;;;;7.19;100.00;101106.22;5075516;28;20036;-78
2023/02/14 08:21:30;;;;;;;25.13;17.35;;;;;;;7.27;100.00;101099.53;5093319;28;20851;-77
2023/02/14 08:23:55;;;;;;;31.17;16.60;;;;;;;7.31;100.00;101154.34;5093231;28;20418;-78
2023/02/14 08:26:21;;;;;;;25.75;16.85;;;;;;;7.27;100.00;101125.63;5075170;28;20111;-77
2023/02/14 08:28:46;;;;;;;29.20;17.70;;;;;;;7.44;100.00;101140.88;5093939;28;20734;-77
2023/02/14 08:31:12;;;;;;;28.33;16.92;;;;;;;7.41;100.00;101138.31;5093810;28;20036;-76
2023/02/14 08:33:37;;;;;;;40.72;17.20;;;;;;;7.59;100.00;101196.59;5093483;28;20124;-78
2023/02/14 08:36:03;;;;;;;29.15;17.25;;;;;;;7.41;100.00;101158.56;5093250;28;20021;-75
2023/02/14 08:38:29;;;;;;;36.10;17.85;;;;;;;7.62;100.00;101179.75;5073822;28;20414;-76
2023/02/14 08:40:59;;;;;;;36.63;17.55;;;;;;;7.42;100.00;101143.41;5074990;28;20028;-76
2023/02/14 08:43:24;;;;;;;52.85;18.55;;;;;;;7.43;100.00;101122.31;5092642;28;20089;-75
2023/02/14 08:45:53;;;;;;;26.27;16.65;;;;;;;7.55;100.00;101152.72;5087556;28;20028;-75
2023/02/14 08:48:19;;;;;;;32.08;16.00;;;;;;;7.55;100.00;101157.78;5071827;28;20033;-76
2023/02/14 08:50:44;;;;;;;27.42;15.82;;;;;;;7.25;100.00;101113.84;5071908;28;20677;-76
2023/02/14 08:53:11;;;;;;;26.17;15.85;;;;;;;7.86;100.00;101194.97;5072788;28;20402;-77
2023/02/14 08:55:38;;;;;;;30.77;16.88;;;;;;;8.04;100.00;101216.16;5054052;28;20028;-76
2023/02/14 08:58:04;;;;;;;26.85;16.85;;;;;;;7.77;100.00;101162.06;5072943;28;20032;-76
2023/02/14 09:00:31;;;;;;;30.92;18.52;;;;;;;7.79;100.00;101172.19;5054442;28;20097;-77
2023/02/14 09:02:57;;;;;;;24.45;15.98;;;;;;;8.14;100.00;101218.69;5071849;28;20040;-77
2023/02/14 09:05:22;;;;;;;28.27;17.65;;;;;;;8.40;100.00;101219.59;5072418;28;20025;-77
2023/02/14 09:07:48;;;;;;;23.33;15.32;;;;;;;7.80;100.00;101168.84;5054139;28;20102;-77
2023/02/14 09:10:14;;;;;;;27.13;17.10;;;;;;;8.41;100.00;101193.44;5072369;28;20032;-77
2023/02/14 09:12:40;;;;;;;29.23;15.45;;;;;;;8.40;100.00;101234.81;5071907;28;20565;-77
2023/02/14 09:15:09;;;;;;;22.75;14.88;;;;;;;8.44;100.00;101241.56;5071943;28;20048;-78
2023/02/14 09:17:35;;;;;;;33.78;15.15;;;;;;;8.04;100.00;101186.59;5071970;28;20044;-76
2023/02/14 09:20:01;;;;;;;23.02;15.27;;;;;;;7.85;100.00;101175.59;5071833;28;20032;-77
2023/02/14 09:22:26;;;;;;;24.13;15.43;;;;;;;8.41;100.00;101236.50;5054545;28;20379;-76
2023/02/14 09:24:52;;;;;;;20.13;14.77;;;;;;;8.53;100.00;101236.53;5054512;28;20036;-76
2023/02/14 09:27:17;;;;;;;25.17;14.70;;;;;;;8.71;100.00;101233.13;5054044;28;20546;-77
2023/02/14 09:29:42;;;;;;;22.90;14.20;;;;;;;9.11;100.00;101227.16;5072164;28;20050;-76
2023/02/14 09:32:08;;;;;;;25.38;14.10;;;;;;;8.71;100.00;101182.44;5054403;28;20103;-76
2023/02/14 09:34:34;;;;;;;24.13;14.02;;;;;;;8.50;100.00;101183.28;5054093;28;20422;-78
2023/02/14 09:37:00;;;;;;;24.50;14.68;;;;;;;8.90;100.00;101233.94;5054648;28;20544;-78
2023/02/14 09:39:25;;;;;;;24.48;14.05;;;;;;;9.01;100.00;101227.19;5071780;28;20029;-78
2023/02/14 09:42:02;;;;;;;20.90;14.10;;;;;;;9.14;100.00;101229.69;5054013;28;20066;-77
2023/02/14 09:44:31;;;;;;;24.92;13.82;;;;;;;9.24;100.00;101221.22;5071662;28;20115;-76
2023/02/14 09:47:18;;;;;;;24.52;14.32;;;;;;;9.26;100.00;101204.31;5071816;28;20055;-76
2023/02/14 09:49:45;;;;;;;27.50;16.50;;;;;;;9.05;100.00;101151.06;5053589;28;20049;-76
2023/02/14 09:52:17;;;;;;;23.55;14.50;;;;;;;9.39;100.00;101198.31;5072210;28;20048;-77
2023/02/14 09:54:45;;;;;;;;;;;;;;;9.21;100.00;101195.03;5054618;28;20025;-76
2023/02/14 09:57:17;;;;;;;21.13;13.02;;;;;;;9.05;100.00;101201.81;5053832;28;20328;-75
2023/02/14 09:59:49;;;;;;;19.45;13.95;;;;;;;9.49;100.00;101188.97;5071643;28;20040;-75
2023/02/14 10:02:26;;;;;;;22.17;14.00;;;;;;;9.58;100.00;101181.34;5071769;28;20036;-75
2023/02/14 10:05:00;;;;;;;21.90;13.48;;;;;;;9.53;100.00;101191.50;5053169;28;20066;-76
2023/02/14 10:07:38;;;;;;;19.23;14.73;;;;;;;9.38;100.00;101183.97;5053487;28;20050;-74
2023/02/14 10:10:37;;;;;;;23.20;13.35;;;;;;;9.17;100.00;101180.66;5052827;28;20029;-74
2023/02/14 10:13:22;;;;;;;17.25;12.57;;;;;;;9.32;100.00;101183.13;5071438;28;20398;-74
2023/02/14 10:15:57;;;;;;;19.00;13.18;;;;;;;9.09;100.00;101079.19;4718368;28;10000314;-74
2023/02/14 10:18:31;;;;;;;20.48;13.50;;;;;;;9.38;100.00;101176.34;5050257;28;20032;-74
2023/02/14 10:20:59;;;;;;;21.92;12.55;;;;;;;9.42;100.00;101169.56;5068811;28;20034;-74
2023/02/14 10:23:40;;;;;;;20.73;12.68;;;;;;;9.66;100.00;101112.75;5051307;28;20033;-74
2023/02/14 10:26:20;;;;;;;27.73;13.68;;;;;;;9.99;100.00;101115.06;5067920;28;20036;-71
2023/02/14 10:28:48;;;;;;;21.35;13.80;;;;;;;9.36;100.00;101131.53;5068640;28;20172;-75
2023/02/14 10:31:31;;;;;;;22.80;15.43;;;;;;;9.84;100.00;101182.06;5055513;28;20028;-76
2023/02/14 10:34:24;;;;;;;21.27;13.55;;;;;;;9.51;100.00;101116.22;5064875;28;20086;-76
2023/02/14 10:37:08;;;;;;;20.15;13.23;;;;;;;10.06;100.00;101175.16;5060406;28;20107;-75
2023/02/14 10:40:01;;;;;;;19.92;13.55;;;;;;;9.77;100.00;101177.84;5068775;28;20125;-75
2023/02/14 10:42:38;;;;;;;17.05;12.85;;;;;;;9.87;100.00;101184.56;5068820;28;20032;-77
2023/02/14 10:45:21;;;;;;;20.00;12.52;;;;;;;9.80;100.00;101182.06;5068004;28;20031;-74
2023/02/14 10:48:30;;;;;;;20.35;13.88;;;;;;;10.18;100.00;101178.47;5053219;28;20032;-72
2023/02/14 10:51:11;;;;;;;18.58;12.55;;;;;;;9.73;100.00;101122.84;5089406;28;20507;-75
2023/02/14 10:54:02;;;;;;;18.70;12.70;;;;;;;9.72;100.00;101123.72;5090749;28;20112;-74
2023/02/14 10:56:39;;;;;;;30.85;15.10;;;;;;;9.68;100.00;101160.13;5090331;28;20020;-75
2023/02/14 10:59:57;;;;;;;25.55;14.93;;;;;;;10.12;100.00;101158.19;5072162;28;20032;-75
2023/02/14 11:02:34;;;;;;;25.52;14.20;;;;;;;9.84;100.00;101110.94;5074622;28;20470;-76
2023/02/14 11:05:01;;;;;;;21.80;15.55;;;;;;;10.35;100.00;101130.91;5072759;28;20066;-74
2023/02/14 11:07:28;;;;;;;18.90;13.00;;;;;;;10.66;100.00;101168.75;5090351;28;20260;-75
2023/02/14 11:09:54;;;;;;;21.15;12.77;;;;;;;10.42;100.00;101170.66;5072530;28;20062;-74
2023/02/14 11:12:37;;;;;;;24.20;13.05;;;;;;;10.09;100.00;101178.50;5090518;28;20032;-74
2023/02/14 11:15:21;;;;;;;17.00;12.25;;;;;;;10.36;100.00;101169.84;5091230;28;20040;-73
2023/02/14 11:17:47;;;;;;;18.25;11.88;;;;;;;9.68;100.00;101119.50;5075653;28;20046;-74
2023/02/14 11:20:24;;;;;;;19.08;11.55;;;;;;;9.97;100.00;101178.59;5094257;28;20032;-73
2023/02/14 11:22:50;;;;;;;20.48;12.10;;;;;;;10.14;100.00;101165.81;5094561;28;20027;-74
2023/02/14 11:25:20;;;;;;;17.38;11.43;;;;;;;10.01;100.00;101167.56;5094101;28;20032;-75
2023/02/14 11:27:51;;;;;;;17.25;11.80;;;;;;;10.36;100.00;101106.31;5094355;28;20413;-75
2023/02/14 11:30:30;;;;;;;21.85;12.02;;;;;;;9.98;100.00;101106.59;5094211;28;20486;-75
2023/02/14 11:32:56;;;;;;;17.25;12.65;;;;;;;10.32;99.87;101169.03;5093971;28;20028;-75
2023/02/14 11:35:26;;;;;;;19.17;11.88;;;;;;;10.01;99.92;101159.94;5094771;28;20035;-74